createdAt,value
2022-12-18T00:02:48.681Z,-8.57
2022-12-18T00:07:50.433Z,-8.77
2022-12-18T00:12:52.071Z,-8.96
2022-12-18T00:17:53.616Z,-8.80
2022-12-18T00:22:56.125Z,-8.83
2022-12-18T00:27:58.319Z,-8.86
2022-12-18T00:33:00.569Z,-8.88
2022-12-18T00:38:07.302Z,-9.28
2022-12-18T00:43:12.173Z,-9.25
2022-12-18T00:48:13.804Z,-9.14
2022-12-18T00:53:16.722Z,-9.22
2022-12-18T00:58:21.680Z,-9.17
2022-12-18T01:03:23.360Z,-9.10
2022-12-18T01:08:25.300Z,-9.11
2022-12-18T01:13:27.220Z,-9.22
2022-12-18T01:18:28.783Z,-9.25
2022-12-18T01:23:30.369Z,-9.45
2022-12-18T01:28:31.939Z,-9.48
2022-12-18T01:33:33.580Z,-9.65
2022-12-18T01:38:35.466Z,-9.57
2022-12-18T01:43:54.142Z,-9.13
2022-12-18T01:49:02.174Z,-8.86
2022-12-18T01:54:04.106Z,-8.81
2022-12-18T01:59:10.351Z,-8.82
2022-12-18T02:04:23.642Z,-8.78
2022-12-18T02:09:34.395Z,-8.94
2022-12-18T02:14:59.811Z,-9.21
2022-12-18T02:20:09.957Z,-9.35
2022-12-18T02:25:22.403Z,-9.17
2022-12-18T02:30:24.348Z,-9.19
2022-12-18T02:35:30.051Z,-9.13
2022-12-18T02:40:37.094Z,-9.10
2022-12-18T02:45:58.400Z,-9.18
2022-12-18T02:51:15.213Z,-9.16
2022-12-18T02:56:32.335Z,-9.37
2022-12-18T03:01:57.017Z,-9.52
2022-12-18T03:07:08.325Z,-9.73
2022-12-18T03:12:26.078Z,-9.76
2022-12-18T03:17:34.009Z,-9.59
2022-12-18T03:22:38.461Z,-9.59
2022-12-18T03:27:45.436Z,-9.89
2022-12-18T03:33:26.773Z,-10.00
2022-12-18T03:38:30.273Z,-10.02
2022-12-18T03:43:46.757Z,-10.13
2022-12-18T03:49:49.022Z,-9.99
2022-12-18T03:54:54.778Z,-10.10
2022-12-18T04:00:03.596Z,-10.21
2022-12-18T04:05:16.622Z,-10.08
2022-12-18T04:10:19.873Z,-10.09
2022-12-18T04:15:22.342Z,-9.94
2022-12-18T04:20:24.326Z,-9.98
2022-12-18T04:25:26.295Z,-9.35
2022-12-18T04:30:39.702Z,-9.69
2022-12-18T04:35:41.781Z,-9.73
2022-12-18T04:40:43.599Z,-9.84
2022-12-18T04:45:54.001Z,-9.89
2022-12-18T04:50:55.670Z,-9.86
2022-12-18T04:56:09.815Z,-9.53
2022-12-18T05:01:13.159Z,-9.65
2022-12-18T05:06:14.809Z,-9.61
2022-12-18T05:11:16.780Z,-9.45
2022-12-18T05:16:18.452Z,-9.46
2022-12-18T05:21:20.779Z,-9.48
2022-12-18T05:26:22.558Z,-9.47
2022-12-18T05:31:24.146Z,-9.45
2022-12-18T05:36:25.717Z,-9.37
2022-12-18T05:41:27.938Z,-9.31
2022-12-18T05:46:30.452Z,-9.27
2022-12-18T05:51:32.553Z,-9.52
2022-12-18T05:56:35.600Z,-9.57
2022-12-18T06:01:37.730Z,-9.66
2022-12-18T06:06:39.414Z,-9.69
2022-12-18T06:11:40.948Z,-10.12
2022-12-18T06:16:42.482Z,-10.09
2022-12-18T06:21:44.734Z,-10.11
2022-12-18T06:26:46.387Z,-10.17
2022-12-18T06:38:47.181Z,-10.34
2022-12-18T06:43:48.763Z,-10.04
2022-12-18T06:48:51.434Z,-9.99
2022-12-18T06:53:55.417Z,-10.02
2022-12-18T06:58:57.244Z,-10.13
2022-12-18T07:03:59.184Z,-9.93
2022-12-18T07:09:00.882Z,-9.94
2022-12-18T07:14:02.644Z,-9.93
2022-12-18T07:19:04.598Z,-9.90
2022-12-18T07:24:06.821Z,-9.92
2022-12-18T07:29:08.884Z,-9.78
2022-12-18T07:34:14.790Z,-9.61
2022-12-18T07:39:16.553Z,-9.42
2022-12-18T07:44:18.376Z,-9.27
2022-12-18T07:49:20.172Z,-9.21
2022-12-18T07:54:21.841Z,-9.23
2022-12-18T07:59:23.397Z,-9.10
2022-12-18T08:04:25.420Z,-9.01
2022-12-18T08:09:27.033Z,-9.04
2022-12-18T08:14:28.720Z,-8.53
2022-12-18T08:19:30.496Z,-8.12
2022-12-18T08:24:38.327Z,-7.93
2022-12-18T08:29:40.092Z,-7.68
2022-12-18T08:34:43.794Z,-7.39
2022-12-18T08:39:46.606Z,-7.03
2022-12-18T08:44:48.238Z,-6.83
2022-12-18T08:49:49.801Z,-6.65
2022-12-18T08:54:51.506Z,-6.47
2022-12-18T08:59:53.336Z,-6.34
2022-12-18T09:04:57.545Z,-6.20
2022-12-18T09:09:59.391Z,-6.04
2022-12-18T09:15:01.044Z,-5.91
2022-12-18T09:20:02.696Z,-5.76
2022-12-18T09:25:09.878Z,-5.58
2022-12-18T09:30:12.837Z,-5.40
2022-12-18T09:35:14.490Z,-5.21
2022-12-18T09:40:20.406Z,-5.15
2022-12-18T09:45:22.837Z,-4.95
2022-12-18T09:50:31.276Z,-4.84
2022-12-18T09:55:40.535Z,-4.62
2022-12-18T10:00:45.499Z,-4.53
2022-12-18T10:06:23.860Z,-4.39
2022-12-18T10:11:42.517Z,-4.27
2022-12-18T10:17:11.357Z,-4.15
2022-12-18T10:22:34.663Z,-4.10
2022-12-18T10:27:36.288Z,-3.93
2022-12-18T10:32:37.897Z,-3.89
2022-12-18T10:38:01.605Z,-3.76
2022-12-18T10:43:12.989Z,-3.63
2022-12-18T10:48:33.963Z,-3.59
2022-12-18T10:53:38.052Z,-3.58
2022-12-18T10:58:40.669Z,-3.52
2022-12-18T11:03:47.088Z,-3.44
2022-12-18T11:09:07.883Z,-3.41
2022-12-18T11:14:25.477Z,-3.28
2022-12-18T11:19:31.206Z,-3.23
2022-12-18T11:24:35.849Z,-3.08
2022-12-18T11:29:46.371Z,-2.94
2022-12-18T11:34:58.884Z,-2.93
2022-12-18T11:40:10.491Z,-2.84
2022-12-18T11:45:15.171Z,-2.63
2022-12-18T11:50:24.691Z,-2.66
2022-12-18T11:55:41.648Z,-2.61
2022-12-18T12:01:00.435Z,-2.53
2022-12-18T12:06:25.925Z,-2.51
2022-12-18T12:11:56.163Z,-2.43
2022-12-18T12:17:20.897Z,-2.40
2022-12-18T12:22:34.081Z,-2.34
2022-12-18T12:27:57.514Z,-2.35
2022-12-18T12:33:09.781Z,-2.27
2022-12-18T12:38:17.243Z,-2.31
2022-12-18T12:43:50.377Z,-2.24
2022-12-18T12:48:59.231Z,-2.30
2022-12-18T12:54:03.980Z,-2.20
2022-12-18T12:59:18.248Z,-2.19
2022-12-18T13:04:39.244Z,-2.08
2022-12-18T13:10:17.319Z,-2.19
2022-12-18T13:15:30.578Z,-2.22
2022-12-18T13:20:37.238Z,-2.26
2022-12-18T13:25:39.330Z,-2.21
2022-12-18T13:30:55.560Z,-2.19
2022-12-18T13:36:14.051Z,-2.20
2022-12-18T13:41:16.089Z,-2.22
2022-12-18T13:46:45.986Z,-2.22
2022-12-18T13:51:53.648Z,-2.24
2022-12-18T13:56:55.645Z,-2.24
2022-12-18T14:01:59.977Z,-2.19
2022-12-18T14:07:18.575Z,-2.13
2022-12-18T14:12:43.333Z,-2.04
2022-12-18T14:17:45.056Z,-2.02
2022-12-18T14:22:55.498Z,-1.96
2022-12-18T14:28:23.598Z,-1.90
2022-12-18T14:33:27.488Z,-1.86
2022-12-18T14:38:33.473Z,-1.82
2022-12-18T14:43:37.523Z,-1.85
2022-12-18T14:48:42.095Z,-1.89
2022-12-18T14:53:50.675Z,-1.92
2022-12-18T14:58:57.230Z,-1.91
2022-12-18T15:04:00.333Z,-1.95
2022-12-18T15:09:24.065Z,-1.96
2022-12-18T15:14:40.913Z,-1.94
2022-12-18T15:19:45.012Z,-1.92
2022-12-18T15:24:50.839Z,-1.90
2022-12-18T15:30:09.024Z,-1.90
2022-12-18T15:35:12.001Z,-1.83
2022-12-18T15:40:22.963Z,-1.85
2022-12-18T15:52:27.012Z,-1.83
2022-12-18T15:57:29.065Z,-1.90
2022-12-18T16:02:30.866Z,-1.81
2022-12-18T16:07:32.767Z,-1.79
2022-12-18T16:12:34.497Z,-1.66
2022-12-18T16:17:41.538Z,-1.70
2022-12-18T16:22:47.126Z,-1.67
2022-12-18T16:27:50.207Z,-1.67
2022-12-18T16:32:56.432Z,-1.57
2022-12-18T16:37:58.130Z,-1.58
2022-12-18T16:43:00.013Z,-1.48
2022-12-18T16:48:04.335Z,-1.47
2022-12-18T16:53:06.256Z,-1.47
2022-12-18T16:58:07.952Z,-1.49
2022-12-18T17:03:09.844Z,-1.47
2022-12-18T17:08:11.921Z,-1.44
2022-12-18T17:13:13.553Z,-1.29
2022-12-18T17:18:15.089Z,-1.20
2022-12-18T17:23:16.640Z,-1.17
2022-12-18T17:28:18.238Z,-1.21
2022-12-18T17:33:20.151Z,-1.14
2022-12-18T17:38:21.692Z,-1.17
2022-12-18T17:43:23.382Z,-1.17
2022-12-18T17:48:25.054Z,-1.17
2022-12-18T17:53:26.990Z,-1.18
2022-12-18T17:58:29.278Z,-1.24
2022-12-18T18:03:32.908Z,-1.23
2022-12-18T18:08:35.993Z,-1.28
2022-12-18T18:13:56.184Z,-1.28
2022-12-18T18:19:02.493Z,-1.35
2022-12-18T18:24:05.029Z,-1.31
2022-12-18T18:29:20.364Z,-1.28
2022-12-18T18:34:26.975Z,-1.36
2022-12-18T18:39:30.327Z,-1.34
2022-12-18T18:44:32.312Z,-1.36
2022-12-18T18:49:34.004Z,-1.35
2022-12-18T18:54:35.669Z,-1.33
2022-12-18T19:00:02.320Z,-1.34
2022-12-18T19:05:04.410Z,-1.34
2022-12-18T19:10:08.480Z,-1.34
2022-12-18T19:15:10.271Z,-1.33
2022-12-18T19:20:15.623Z,-1.34
2022-12-18T19:25:17.431Z,-1.37
2022-12-18T19:30:19.324Z,-1.33
2022-12-18T19:35:20.939Z,-1.41
2022-12-18T19:40:22.724Z,-1.33
2022-12-18T19:45:24.431Z,-1.36
2022-12-18T19:50:26.625Z,-1.32
2022-12-18T19:55:28.602Z,-1.35
2022-12-18T20:00:30.280Z,-1.30
2022-12-18T20:05:32.998Z,-1.29
2022-12-18T20:10:34.593Z,-1.32
2022-12-18T20:15:40.458Z,-1.29
2022-12-18T20:20:46.643Z,-1.22
2022-12-18T20:25:54.623Z,-1.25
2022-12-18T20:31:04.822Z,-1.24
2022-12-18T20:36:08.013Z,-1.25
2022-12-18T20:41:16.395Z,-1.30
2022-12-18T20:46:18.354Z,-1.25
2022-12-18T20:51:21.036Z,-1.29
2022-12-18T20:56:29.432Z,-1.28
2022-12-18T21:01:33.397Z,-1.30
2022-12-18T21:06:37.017Z,-1.39
2022-12-18T21:11:57.520Z,-1.39
2022-12-18T21:17:02.771Z,-1.41
2022-12-18T21:22:04.585Z,-1.38
2022-12-18T21:27:06.407Z,-1.42
2022-12-18T21:32:09.398Z,-1.43
2022-12-18T21:37:11.587Z,-1.43
2022-12-18T21:42:32.784Z,-1.45
2022-12-18T21:47:34.369Z,-1.45
2022-12-18T21:52:37.858Z,-1.41
2022-12-18T21:57:39.714Z,-1.48
2022-12-18T22:02:42.474Z,-1.43
2022-12-18T22:07:46.320Z,-1.43
2022-12-18T22:12:48.918Z,-1.38
2022-12-18T22:17:52.678Z,-1.44
2022-12-18T22:23:05.974Z,-1.39
2022-12-18T22:28:26.832Z,-1.40
2022-12-18T22:33:31.074Z,-1.37
2022-12-18T22:38:32.898Z,-1.36
2022-12-18T22:43:34.500Z,-1.30
2022-12-18T22:48:36.174Z,-1.29
2022-12-18T22:53:37.921Z,-1.29
2022-12-18T22:58:47.702Z,-1.25
2022-12-18T23:03:49.979Z,-1.20
2022-12-18T23:08:55.948Z,-1.19
2022-12-18T23:13:57.955Z,-1.16
2022-12-18T23:19:00.664Z,-1.16
2022-12-18T23:24:02.405Z,-1.11
2022-12-18T23:29:04.818Z,-1.09
2022-12-18T23:34:07.232Z,-1.05
2022-12-18T23:39:11.826Z,-1.05
2022-12-18T23:44:16.860Z,-0.99
2022-12-18T23:49:18.851Z,-0.98
2022-12-18T23:54:24.319Z,-0.97
2022-12-18T23:59:35.195Z,-0.89
